Time;durP1;ratioP1;P1;durP2;ratioP2;P2;SDS_P1;SDS_P2;PMS_P1;PMS_P2;Temp;Humidity;BMP_temperature;BMP_pressure;BME280_temperature;BME280_humidity;BME280_pressure;Samples;Min_cycle;Max_cycle;Signal;HPM_P1;HPM_P2
2021/06/20 00:00:36;;;;;;;33.75;18.52;;;18.00;99.90;;;;;;4214329;28;20279;-90
2021/06/20 00:02:37;;;;;;;35.50;18.40;;;18.00;99.90;;;;;;4197599;28;20605;-89
2021/06/20 00:04:38;;;;;;;30.02;16.90;;;18.00;99.90;;;;;;4214360;28;20178;-89
2021/06/20 00:06:38;;;;;;;28.50;17.30;;;17.70;99.90;;;;;;4197586;28;20220;-89
2021/06/20 00:08:39;;;;;;;30.58;18.30;;;17.80;99.90;;;;;;4197820;28;20519;-90
2021/06/20 00:10:40;;;;;;;32.15;17.85;;;18.00;99.90;;;;;;4197574;28;20183;-89
2021/06/20 00:12:41;;;;;;;28.25;15.85;;;18.10;99.90;;;;;;4197764;28;20190;-89
2021/06/20 00:14:42;;;;;;;30.05;16.30;;;17.90;99.90;;;;;;4197652;28;20220;-89
2021/06/20 00:16:43;;;;;;;31.33;16.88;;;17.70;99.90;;;;;;4214086;28;20562;-90
2021/06/20 00:18:44;;;;;;;30.80;17.02;;;17.60;99.90;;;;;;4197446;28;20175;-89
2021/06/20 00:20:47;;;;;;;33.78;18.38;;;18.00;99.90;;;;;;4197640;28;20655;-89
2021/06/20 00:22:49;;;;;;;30.50;17.80;;;17.90;99.90;;;;;;4200330;28;20235;-90
2021/06/20 00:24:50;;;;;;;32.78;19.00;;;18.00;99.90;;;;;;4200930;28;20291;-90
2021/06/20 00:26:50;;;;;;;32.85;18.65;;;18.20;99.90;;;;;;4217634;28;20174;-89
2021/06/20 00:28:51;;;;;;;32.75;18.45;;;17.90;99.90;;;;;;4217696;28;20209;-90
2021/06/20 00:30:52;;;;;;;40.95;20.90;;;17.90;99.90;;;;;;4200760;28;20615;-89
2021/06/20 00:32:54;;;;;;;35.58;19.52;;;18.10;99.90;;;;;;4200762;28;20576;-90
2021/06/20 00:34:54;;;;;;;37.47;20.50;;;18.20;99.90;;;;;;4200858;28;20171;-89
2021/06/20 00:36:55;;;;;;;39.75;21.63;;;18.40;99.90;;;;;;4217626;28;20205;-90
2021/06/20 00:38:56;;;;;;;39.13;21.83;;;18.50;99.90;;;;;;4200736;28;20162;-90
2021/06/20 00:40:56;;;;;;;38.65;20.65;;;18.50;99.90;;;;;;4217781;28;20178;-90
2021/06/20 00:42:57;;;;;;;37.25;20.33;;;18.10;99.90;;;;;;4200447;28;20187;-90
2021/06/20 00:44:58;;;;;;;33.20;19.17;;;17.90;99.90;;;;;;4200750;28;20175;-90
2021/06/20 00:46:58;;;;;;;34.17;19.58;;;17.70;99.90;;;;;;4200408;28;20178;-89
2021/06/20 00:48:59;;;;;;;31.40;18.92;;;17.70;99.90;;;;;;4200476;28;20186;-91
2021/06/20 00:51:00;;;;;;;27.95;18.20;;;17.60;99.90;;;;;;4200375;28;20293;-91
2021/06/20 00:53:03;;;;;;;29.95;18.10;;;17.60;99.90;;;;;;4200268;28;20191;-91
2021/06/20 00:55:05;;;;;;;27.55;17.30;;;17.70;99.90;;;;;;4200436;28;20166;-90
2021/06/20 00:57:06;;;;;;;29.48;16.73;;;17.80;99.90;;;;;;4200401;28;20205;-90
2021/06/20 00:59:07;;;;;;;27.65;17.02;;;17.80;99.90;;;;;;4200113;28;20234;-90
2021/06/20 01:01:08;;;;;;;29.75;16.92;;;17.80;99.90;;;;;;4200073;28;20210;-90
2021/06/20 01:03:08;;;;;;;28.30;17.23;;;18.10;99.90;;;;;;4200183;28;20179;-90
2021/06/20 01:05:10;;;;;;;26.02;16.35;;;18.00;99.90;;;;;;4217035;28;20170;-92
2021/06/20 01:07:18;;;;;;;37.60;18.27;;;18.10;99.90;;;;;;4200411;28;20167;-90
2021/06/20 01:09:18;;;;;;;27.10;17.70;;;18.10;99.90;;;;;;4200302;28;20180;-91
2021/06/20 01:11:21;;;;;;;27.58;17.35;;;18.20;99.90;;;;;;4200083;28;20541;-91
2021/06/20 01:13:22;;;;;;;28.00;15.88;;;18.10;99.90;;;;;;4216937;28;20190;-92
2021/06/20 01:15:22;;;;;;;26.33;15.73;;;18.10;99.90;;;;;;4200022;28;20202;-90
2021/06/20 01:17:24;;;;;;;27.27;16.35;;;18.20;99.90;;;;;;4200050;28;20250;-89
2021/06/20 01:19:24;;;;;;;31.20;17.02;;;18.30;99.90;;;;;;4216636;28;20206;-92
2021/06/20 01:21:25;;;;;;;26.98;15.57;;;18.30;99.90;;;;;;4216703;28;20182;-91
2021/06/20 01:23:26;;;;;;;29.20;16.23;;;18.30;99.90;;;;;;4199950;28;20195;-90
2021/06/20 01:25:28;;;;;;;31.83;16.67;;;18.40;99.90;;;;;;4216661;28;20162;-91
2021/06/20 01:27:35;;;;;;;26.80;16.45;;;18.40;99.90;;;;;;4216799;28;20169;-90
2021/06/20 01:29:44;;;;;;;25.33;16.30;;;18.30;99.90;;;;;;4216835;28;20181;-90
2021/06/20 01:31:51;;;;;;;25.20;16.65;;;18.30;99.90;;;;;;4199985;28;20266;-90
2021/06/20 01:33:51;;;;;;;26.15;16.20;;;18.40;99.90;;;;;;4215979;28;20247;-91
2021/06/20 01:35:53;;;;;;;28.50;15.35;;;18.40;99.90;;;;;;4199985;28;20643;-91
2021/06/20 01:37:55;;;;;;;24.92;15.85;;;18.40;99.90;;;;;;4216686;28;20665;-90
2021/06/20 01:39:57;;;;;;;25.42;15.65;;;18.40;99.90;;;;;;4199743;28;20644;-90
2021/06/20 01:41:57;;;;;;;32.85;16.50;;;18.40;99.90;;;;;;4199808;28;20171;-91
2021/06/20 01:43:58;;;;;;;24.38;16.42;;;18.30;99.90;;;;;;4199716;28;20167;-90
2021/06/20 01:45:59;;;;;;;23.83;15.70;;;18.30;99.90;;;;;;4199531;28;20186;-91
2021/06/20 01:48:00;;;;;;;31.05;16.40;;;18.30;99.90;;;;;;4216310;28;20182;-90
2021/06/20 01:50:03;;;;;;;23.48;15.52;;;18.30;99.90;;;;;;4199356;28;20174;-91
2021/06/20 01:52:04;;;;;;;28.83;15.60;;;18.20;99.90;;;;;;4199220;28;20191;-90
2021/06/20 01:54:05;;;;;;;26.55;16.15;;;18.40;99.90;;;;;;4199451;28;20508;-90
2021/06/20 01:56:05;;;;;;;33.67;18.05;;;18.50;99.90;;;;;;4199601;28;20686;-91
2021/06/20 01:58:08;;;;;;;26.20;15.98;;;18.60;99.90;;;;;;4199553;28;20232;-91
2021/06/20 02:00:14;;;;;;;24.35;15.77;;;18.60;99.90;;;;;;4200089;28;20237;-92
2021/06/20 02:02:16;;;;;;;29.38;16.08;;;18.50;99.90;;;;;;4215962;28;20367;-90
2021/06/20 02:04:17;;;;;;;31.58;16.00;;;18.40;99.90;;;;;;4199123;28;20179;-91
2021/06/20 02:06:17;;;;;;;25.63;16.48;;;18.20;99.90;;;;;;4216094;28;20194;-90
2021/06/20 02:08:19;;;;;;;31.30;17.17;;;18.20;99.90;;;;;;4199384;28;20265;-91
2021/06/20 02:10:20;;;;;;;28.67;17.52;;;18.20;99.90;;;;;;4216131;28;20178;-91
2021/06/20 02:12:23;;;;;;;27.08;17.50;;;18.20;99.90;;;;;;4199370;28;20270;-90
2021/06/20 02:14:24;;;;;;;29.98;17.63;;;18.10;99.90;;;;;;4199468;28;20179;-91
2021/06/20 02:16:25;;;;;;;28.70;17.70;;;18.20;99.90;;;;;;4198871;28;20716;-90
2021/06/20 02:18:26;;;;;;;27.98;18.10;;;18.10;99.90;;;;;;4199084;28;20265;-91
2021/06/20 02:20:27;;;;;;;29.92;17.85;;;18.10;99.90;;;;;;4199059;28;20206;-90
2021/06/20 02:22:28;;;;;;;31.83;17.45;;;17.90;99.90;;;;;;4215745;28;20201;-91
2021/06/20 02:24:29;;;;;;;33.60;18.05;;;17.90;99.90;;;;;;4198883;28;20181;-91
2021/06/20 02:26:30;;;;;;;29.05;18.13;;;17.90;99.90;;;;;;4215740;28;20178;-90
2021/06/20 02:28:31;;;;;;;27.10;17.60;;;17.80;99.90;;;;;;4199067;28;20163;-92
2021/06/20 02:30:31;;;;;;;30.25;18.90;;;17.80;99.90;;;;;;4215627;28;20530;-91
2021/06/20 02:32:32;;;;;;;30.42;18.23;;;17.90;99.90;;;;;;4198951;28;20191;-90
2021/06/20 02:34:33;;;;;;;32.47;18.73;;;17.90;99.90;;;;;;4215693;28;20588;-90
2021/06/20 02:36:34;;;;;;;32.08;19.02;;;18.00;99.90;;;;;;4199042;28;20159;-91
2021/06/20 02:38:35;;;;;;;31.95;20.75;;;18.00;99.90;;;;;;4198783;28;20265;-90
2021/06/20 02:40:35;;;;;;;30.15;19.88;;;18.00;99.90;;;;;;4198670;28;20644;-90
2021/06/20 02:42:37;;;;;;;35.95;20.88;;;18.00;99.90;;;;;;4215308;28;20194;-91
2021/06/20 02:44:38;;;;;;;31.75;20.83;;;18.00;99.90;;;;;;4198635;28;20167;-90
2021/06/20 02:46:39;;;;;;;39.45;21.80;;;18.10;99.90;;;;;;4198525;28;20175;-91
2021/06/20 02:48:39;;;;;;;39.25;21.58;;;18.10;99.90;;;;;;4198566;28;20276;-90
2021/06/20 02:50:40;;;;;;;35.38;21.58;;;18.30;99.90;;;;;;4198664;28;20171;-91
2021/06/20 02:52:43;;;;;;;34.47;22.52;;;18.20;99.90;;;;;;4198421;28;20263;-91
2021/06/20 02:54:51;;;;;;;38.40;22.30;;;18.20;99.90;;;;;;4215304;28;20170;-91
2021/06/20 02:56:51;;;;;;;37.30;23.35;;;18.20;99.90;;;;;;4198341;28;20542;-90
2021/06/20 02:58:52;;;;;;;35.80;22.33;;;18.10;99.90;;;;;;4215149;28;20170;-91
2021/06/20 03:00:53;;;;;;;40.03;21.15;;;18.10;99.90;;;;;;4198407;28;20174;-89
2021/06/20 03:02:53;;;;;;;32.10;22.33;;;18.00;99.90;;;;;;4215101;28;20239;-92
2021/06/20 03:04:55;;;;;;;39.05;23.58;;;18.00;99.90;;;;;;4198385;28;20163;-91
2021/06/20 03:06:56;;;;;;;37.95;24.10;;;18.00;99.90;;;;;;4214927;28;20593;-90
2021/06/20 03:08:57;;;;;;;39.45;25.33;;;18.00;99.90;;;;;;4214935;28;20175;-90
2021/06/20 03:10:58;;;;;;;39.13;24.77;;;18.10;99.90;;;;;;4214950;28;20351;-90
2021/06/20 03:12:58;;;;;;;41.80;24.48;;;18.10;99.90;;;;;;4214941;28;20216;-90
2021/06/20 03:15:00;;;;;;;43.97;26.35;;;18.20;99.90;;;;;;4215262;28;20170;-89
2021/06/20 03:17:03;;;;;;;47.20;25.75;;;18.30;99.90;;;;;;4198239;28;20731;-90
2021/06/20 03:19:05;;;;;;;46.15;27.88;;;18.40;99.90;;;;;;4214649;28;20237;-91
2021/06/20 03:21:06;;;;;;;51.80;28.63;;;18.50;99.90;;;;;;4198085;28;20167;-90
2021/06/20 03:23:10;;;;;;;54.30;29.65;;;18.50;99.90;;;;;;4198091;28;20202;-90
2021/06/20 03:25:11;;;;;;;54.38;31.10;;;18.50;99.90;;;;;;4198312;28;20208;-90
2021/06/20 03:27:12;;;;;;;52.35;30.30;;;18.50;99.90;;;;;;4215009;28;20170;-91
2021/06/20 03:29:13;;;;;;;60.22;31.58;;;18.50;99.90;;;;;;4198302;28;20696;-90
2021/06/20 03:31:17;;;;;;;60.03;31.15;;;18.40;99.90;;;;;;4214865;28;20182;-91
2021/06/20 03:33:18;;;;;;;58.65;31.63;;;18.60;99.90;;;;;;4197756;28;20187;-91
2021/06/20 03:35:18;;;;;;;63.25;32.60;;;18.70;99.90;;;;;;4214593;28;20231;-91
2021/06/20 03:37:19;;;;;;;57.70;32.95;;;18.70;99.90;;;;;;4198131;28;20236;-90
2021/06/20 03:39:20;;;;;;;57.58;32.47;;;18.70;99.90;;;;;;4214497;28;20213;-90
2021/06/20 03:41:21;;;;;;;59.65;32.00;;;18.70;99.90;;;;;;4197724;28;20170;-91
2021/06/20 03:43:22;;;;;;;61.13;33.67;;;18.70;99.90;;;;;;4197859;28;20761;-92
2021/06/20 03:45:23;;;;;;;57.95;33.83;;;18.60;99.90;;;;;;4214653;28;20174;-90
2021/06/20 03:47:23;;;;;;;57.53;33.00;;;18.60;99.90;;;;;;4197514;28;20269;-91
2021/06/20 03:49:25;;;;;;;62.83;35.80;;;18.60;99.90;;;;;;4197843;28;20167;-92
2021/06/20 03:51:25;;;;;;;62.97;36.47;;;18.60;99.90;;;;;;4197751;28;20659;-91
2021/06/20 03:53:26;;;;;;;74.63;38.35;;;18.50;99.90;;;;;;4197703;28;20247;-92
2021/06/20 03:55:27;;;;;;;73.32;36.25;;;18.60;99.90;;;;;;4197961;28;20171;-91
2021/06/20 03:57:28;;;;;;;73.07;37.60;;;18.70;99.90;;;;;;4214083;28;20194;-91
2021/06/20 03:59:29;;;;;;;77.32;38.70;;;18.70;99.90;;;;;;4197470;28;20218;-91
2021/06/20 04:01:30;;;;;;;75.55;37.22;;;18.80;99.90;;;;;;4197586;28;20167;-91
2021/06/20 04:03:31;;;;;;;65.07;36.72;;;18.80;99.90;;;;;;4197489;28;20206;-92
2021/06/20 04:05:32;;;;;;;82.70;38.30;;;18.60;99.90;;;;;;4197774;28;20669;-90
2021/06/20 04:07:34;;;;;;;76.75;38.03;;;18.70;99.90;;;;;;4197685;28;20182;-91
2021/06/20 04:09:34;;;;;;;78.82;38.30;;;18.60;99.90;;;;;;4214272;28;20158;-91
2021/06/20 04:11:35;;;;;;;73.25;37.55;;;18.60;99.90;;;;;;4197473;28;20166;-91
2021/06/20 04:13:36;;;;;;;82.25;38.08;;;18.60;99.90;;;;;;4197701;28;20197;-91
2021/06/20 04:15:37;;;;;;;86.97;38.72;;;18.70;99.90;;;;;;4197356;28;20694;-91
2021/06/20 04:17:38;;;;;;;83.78;37.13;;;18.80;99.90;;;;;;4197595;28;20205;-90
2021/06/20 04:19:39;;;;;;;87.75;37.10;;;18.80;99.90;;;;;;4197552;28;20291;-91
2021/06/20 04:21:40;;;;;;;80.45;38.35;;;18.80;99.90;;;;;;4214237;28;20264;-90
2021/06/20 04:23:41;;;;;;;90.82;37.40;;;18.80;99.90;;;;;;4197706;28;20228;-90
2021/06/20 04:25:42;;;;;;;83.75;36.83;;;19.00;99.90;;;;;;4214101;28;20174;-92
2021/06/20 04:27:46;;;;;;;88.32;36.67;;;18.90;99.90;;;;;;4197220;28;20217;-91
2021/06/20 04:29:47;;;;;;;76.95;36.97;;;18.80;99.90;;;;;;4214065;28;20166;-91
2021/06/20 04:31:48;;;;;;;77.40;35.03;;;18.90;99.90;;;;;;4214122;28;20171;-91
2021/06/20 04:33:49;;;;;;;68.57;34.92;;;18.80;99.90;;;;;;4197620;28;20171;-92
2021/06/20 04:35:51;;;;;;;65.38;32.85;;;18.70;99.90;;;;;;4214184;28;20178;-93
2021/06/20 04:37:52;;;;;;;62.63;33.30;;;18.60;99.90;;;;;;4197387;28;20178;-91
2021/06/20 04:39:53;;;;;;;60.63;32.78;;;18.60;99.90;;;;;;4213931;28;20214;-91
2021/06/20 04:41:53;;;;;;;69.53;32.08;;;18.70;99.90;;;;;;4197200;28;20159;-91
2021/06/20 04:45:55;;;;;;;69.55;32.15;;;18.80;99.90;;;;;;4213935;28;20668;-91
2021/06/20 04:47:55;;;;;;;58.33;31.25;;;18.80;99.90;;;;;;4197377;28;20631;-91
2021/06/20 04:49:57;;;;;;;54.63;31.75;;;18.90;99.90;;;;;;4197116;28;20239;-91
2021/06/20 04:51:58;;;;;;;61.35;31.30;;;18.80;99.90;;;;;;4197245;28;20178;-90
2021/06/20 04:53:59;;;;;;;57.97;32.00;;;18.90;99.90;;;;;;4213934;28;20268;-91
2021/06/20 04:55:59;;;;;;;62.05;31.98;;;19.00;99.90;;;;;;4197229;28;20182;-91
2021/06/20 04:58:01;;;;;;;55.58;30.20;;;18.90;99.90;;;;;;4214240;28;20181;-92
2021/06/20 05:00:04;;;;;;;56.35;30.50;;;18.80;99.90;;;;;;4213998;28;20241;-91
2021/06/20 05:02:05;;;;;;;62.58;30.90;;;18.80;99.90;;;;;;4213620;28;20190;-91
2021/06/20 05:04:07;;;;;;;58.83;31.15;;;19.00;99.90;;;;;;4196988;28;20167;-89
2021/06/20 05:06:08;;;;;;;51.25;30.02;;;19.10;99.90;;;;;;4197240;28;20159;-91
2021/06/20 05:08:08;;;;;;;55.13;30.63;;;19.20;99.90;;;;;;4213879;28;20182;-91
2021/06/20 05:10:10;;;;;;;51.10;30.63;;;19.40;99.90;;;;;;4217051;28;20162;-91
2021/06/20 05:12:11;;;;;;;53.25;31.77;;;19.50;99.90;;;;;;4200187;28;20226;-91
2021/06/20 05:14:11;;;;;;;56.38;30.75;;;19.60;99.90;;;;;;4216892;28;20162;-91
2021/06/20 05:16:12;;;;;;;55.65;30.23;;;19.50;99.90;;;;;;4217047;28;20598;-92
2021/06/20 05:18:13;;;;;;;50.00;30.65;;;19.80;99.90;;;;;;4200385;28;20219;-91
2021/06/20 05:20:14;;;;;;;48.20;30.10;;;19.90;99.90;;;;;;4217090;28;20210;-91
2021/06/20 05:22:16;;;;;;;56.40;30.83;;;19.90;99.90;;;;;;4216709;28;20226;-91
2021/06/20 05:24:17;;;;;;;53.63;31.33;;;20.00;99.90;;;;;;4216776;28;20196;-91
2021/06/20 05:26:17;;;;;;;52.45;29.45;;;20.00;99.90;;;;;;4199976;28;20250;-92
2021/06/20 05:28:19;;;;;;;48.38;30.33;;;19.80;99.90;;;;;;4216881;28;20223;-91
2021/06/20 05:30:20;;;;;;;49.97;31.42;;;19.60;99.90;;;;;;4200142;28;20174;-94
2021/06/20 05:32:21;;;;;;;48.55;30.38;;;19.60;99.90;;;;;;4199649;28;20201;-90
2021/06/20 05:34:22;;;;;;;49.72;29.50;;;19.50;99.90;;;;;;4199813;28;20627;-90
2021/06/20 05:36:22;;;;;;;54.30;31.02;;;19.50;99.90;;;;;;4216465;28;20182;-91
2021/06/20 05:38:23;;;;;;;55.33;29.85;;;19.40;99.90;;;;;;4199896;28;20627;-91
2021/06/20 05:40:24;;;;;;;52.42;32.10;;;19.40;99.90;;;;;;4199615;28;20210;-92
2021/06/20 05:42:25;;;;;;;53.92;28.65;;;19.50;99.90;;;;;;4216350;28;20633;-91
2021/06/20 05:44:26;;;;;;;48.50;29.90;;;19.50;99.90;;;;;;4199709;28;20186;-92
2021/06/20 05:46:27;;;;;;;42.28;27.63;;;19.40;99.90;;;;;;4216249;28;20290;-90
2021/06/20 05:48:27;;;;;;;50.05;29.05;;;19.20;99.90;;;;;;4199644;28;20268;-91
2021/06/20 05:50:28;;;;;;;44.08;27.20;;;19.20;99.90;;;;;;4216213;28;20166;-90
2021/06/20 05:52:29;;;;;;;43.17;27.50;;;19.10;99.90;;;;;;4216141;28;20311;-91
2021/06/20 05:54:30;;;;;;;45.58;28.05;;;19.10;99.90;;;;;;4199405;28;20170;-92
2021/06/20 05:56:31;;;;;;;46.15;26.65;;;19.10;99.90;;;;;;4216104;28;20626;-90
2021/06/20 05:58:31;;;;;;;46.38;26.45;;;19.10;99.90;;;;;;4215869;28;20178;-92
2021/06/20 06:00:32;;;;;;;41.58;27.48;;;19.10;99.90;;;;;;4199329;28;20215;-91
2021/06/20 06:02:33;;;;;;;46.60;27.00;;;19.20;99.90;;;;;;4216238;28;20186;-91
2021/06/20 06:04:33;;;;;;;47.72;26.83;;;19.50;99.90;;;;;;4199534;28;20164;-92
2021/06/20 06:06:34;;;;;;;45.17;27.30;;;19.50;99.90;;;;;;4199841;28;20258;-90
2021/06/20 06:08:35;;;;;;;40.38;24.08;;;19.70;99.90;;;;;;4199579;28;20289;-90
2021/06/20 06:10:36;;;;;;;40.20;23.85;;;19.70;99.90;;;;;;4199311;28;20175;-91
2021/06/20 06:12:36;;;;;;;33.13;22.58;;;19.60;99.90;;;;;;4199459;28;20195;-91
2021/06/20 06:14:37;;;;;;;33.25;20.88;;;19.50;99.90;;;;;;4215973;28;20215;-90
2021/06/20 06:16:38;;;;;;;38.63;22.23;;;19.40;99.90;;;;;;4199340;28;20174;-91
2021/06/20 06:18:40;;;;;;;36.63;22.17;;;19.30;99.90;;;;;;4216302;28;20170;-92
2021/06/20 06:20:41;;;;;;;33.58;20.50;;;19.30;99.90;;;;;;4198689;28;20248;-91
2021/06/20 06:22:42;;;;;;;29.45;18.27;;;19.30;99.90;;;;;;4198941;28;20245;-91
2021/06/20 06:24:44;;;;;;;33.78;20.70;;;19.20;99.90;;;;;;4199011;28;20171;-92
2021/06/20 06:26:45;;;;;;;33.67;19.40;;;19.40;99.90;;;;;;4199071;28;20186;-91
2021/06/20 06:28:45;;;;;;;28.88;17.95;;;19.60;99.90;;;;;;4216028;28;20170;-92
2021/06/20 06:30:46;;;;;;;28.33;18.13;;;19.90;99.90;;;;;;4198905;28;20240;-92
2021/06/20 06:32:48;;;;;;;29.33;17.42;;;19.90;99.90;;;;;;4215456;28;20608;-91
2021/06/20 06:34:48;;;;;;;27.60;16.65;;;20.10;99.90;;;;;;4198945;28;20198;-90
2021/06/20 06:36:51;;;;;;;24.13;16.63;;;20.40;99.90;;;;;;4215605;28;20162;-91
2021/06/20 06:38:51;;;;;;;23.27;16.23;;;20.60;99.90;;;;;;4215553;28;20268;-90
2021/06/20 06:40:52;;;;;;;28.25;15.77;;;20.70;99.90;;;;;;4198572;28;20690;-91
2021/06/20 06:42:53;;;;;;;23.58;16.05;;;20.60;99.90;;;;;;4198648;28;20194;-90
2021/06/20 06:44:54;;;;;;;20.63;13.52;;;20.80;99.90;;;;;;4215641;28;20637;-92
2021/06/20 06:46:55;;;;;;;19.90;13.10;;;21.00;99.90;;;;;;4215091;28;20178;-90
2021/06/20 06:48:55;;;;;;;19.05;12.70;;;21.10;99.90;;;;;;4198603;28;20244;-90
2021/06/20 06:50:56;;;;;;;25.90;12.27;;;20.90;99.90;;;;;;4215456;28;20181;-91
2021/06/20 06:52:57;;;;;;;16.77;12.02;;;20.60;99.90;;;;;;4198528;28;20647;-90
2021/06/20 06:54:58;;;;;;;20.80;11.35;;;20.90;99.90;;;;;;4198606;28;20167;-91
2021/06/20 06:56:58;;;;;;;18.13;12.10;;;21.10;99.90;;;;;;4198545;28;20210;-91
2021/06/20 06:58:59;;;;;;;16.02;10.15;;;21.20;99.90;;;;;;4198480;28;20185;-91
2021/06/20 07:01:00;;;;;;;18.75;9.13;;;21.40;99.90;;;;;;4198685;28;20171;-90
2021/06/20 07:03:01;;;;;;;12.63;8.65;;;21.20;99.90;;;;;;4198604;28;20195;-91
2021/06/20 07:05:02;;;;;;;11.65;7.32;;;21.20;99.90;;;;;;4198508;28;20244;-90
2021/06/20 07:07:03;;;;;;;13.18;6.28;;;21.20;99.90;;;;;;4214835;28;20215;-90
2021/06/20 07:09:04;;;;;;;8.60;5.68;;;21.00;99.90;;;;;;4198002;28;20194;-90
2021/06/20 07:11:06;;;;;;;10.18;5.63;;;21.00;99.90;;;;;;4198386;28;20262;-91
2021/06/20 07:13:07;;;;;;;9.40;4.70;;;21.20;99.90;;;;;;4198387;28;20701;-92
2021/06/20 07:15:08;;;;;;;4.80;3.53;;;21.30;99.90;;;;;;4198332;28;20236;-91
2021/06/20 07:17:09;;;;;;;5.93;3.50;;;22.00;99.90;;;;;;4215096;28;20630;-90
2021/06/20 07:19:11;;;;;;;7.55;3.33;;;23.10;99.90;;;;;;4198131;28;20174;-91
2021/06/20 07:21:11;;;;;;;3.42;2.50;;;23.60;99.90;;;;;;4198356;28;20546;-92
2021/06/20 07:23:13;;;;;;;4.70;2.10;;;24.50;99.90;;;;;;4214850;28;20204;-91
2021/06/20 07:25:16;;;;;;;5.00;1.85;;;25.40;99.90;;;;;;4197960;28;20175;-92
2021/06/20 07:27:17;;;;;;;5.13;1.90;;;25.60;99.90;;;;;;4198199;28;20209;-91
2021/06/20 07:29:18;;;;;;;5.55;1.70;;;26.80;99.90;;;;;;4214783;28;20174;-91
2021/06/20 07:31:19;;;;;;;3.35;1.58;;;28.30;99.90;;;;;;4197318;28;20217;-92
2021/06/20 07:33:20;;;;;;;4.35;1.40;;;29.10;99.90;;;;;;4214604;28;20182;-91
2021/06/20 07:35:21;;;;;;;5.55;1.50;;;29.40;99.90;;;;;;4214837;28;20170;-91
2021/06/20 07:37:22;;;;;;;3.92;1.30;;;30.00;99.90;;;;;;4197972;28;20209;-92
2021/06/20 07:39:22;;;;;;;8.32;1.60;;;29.90;99.90;;;;;;4197746;28;20214;-91
2021/06/20 07:41:24;;;;;;;6.43;1.20;;;30.20;99.90;;;;;;4198099;28;20193;-92
2021/06/20 07:43:25;;;;;;;3.67;1.20;;;30.60;99.90;;;;;;4198151;28;20228;-91
2021/06/20 07:45:26;;;;;;;2.85;1.10;;;31.60;99.90;;;;;;4198064;28;20174;-91
2021/06/20 07:47:26;;;;;;;6.72;1.20;;;32.20;99.90;;;;;;4214820;28;20174;-91
2021/06/20 07:49:27;;;;;;;4.60;1.15;;;32.50;99.90;;;;;;4198062;28;20159;-89
2021/06/20 07:51:28;;;;;;;2.45;1.15;;;31.50;99.90;;;;;;4181235;28;20194;-92
2021/06/20 07:53:29;;;;;;;6.10;1.00;;;32.30;99.90;;;;;;4197454;28;20201;-89
2021/06/20 07:55:29;;;;;;;3.70;1.00;;;32.00;99.90;;;;;;4197788;28;20249;-93
2021/06/20 07:57:30;;;;;;;2.38;0.90;;;32.80;99.90;;;;;;4214475;28;20162;-90
2021/06/20 07:59:31;;;;;;;3.47;0.95;;;32.90;99.90;;;;;;4197523;28;20214;-89
2021/06/20 08:01:31;;;;;;;2.28;0.90;;;33.00;99.90;;;;;;4214760;28;20162;-90
2021/06/20 08:03:34;;;;;;;3.47;1.10;;;33.20;99.90;;;;;;4197885;28;20194;-88
2021/06/20 08:05:35;;;;;;;4.13;1.20;;;32.70;99.90;;;;;;4197922;28;20677;-90
2021/06/20 08:07:35;;;;;;;3.35;1.00;;;31.40;99.90;;;;;;4198077;28;20178;-92
2021/06/20 08:09:37;;;;;;;4.82;1.20;;;29.70;99.90;;;;;;4197678;28;20159;-93
2021/06/20 08:11:37;;;;;;;3.95;0.80;;;28.70;99.90;;;;;;4197760;28;20216;-91
2021/06/20 08:13:38;;;;;;;4.40;0.98;;;29.10;99.90;;;;;;4214359;28;20213;-91
2021/06/20 08:15:39;;;;;;;2.35;1.00;;;30.10;99.90;;;;;;4197782;28;20186;-91
2021/06/20 08:17:41;;;;;;;3.92;0.90;;;30.30;99.90;;;;;;4197734;28;20534;-88
2021/06/20 08:41:04;;;;;;;3.75;0.93;;;26.80;99.90;;;;;;4246133;27;20331;-91
2021/06/20 08:43:05;;;;;;;3.47;0.95;;;27.30;99.90;;;;;;4229053;28;20285;-89
2021/06/20 08:45:07;;;;;;;4.13;0.93;;;27.80;99.90;;;;;;4212289;28;20170;-89
2021/06/20 08:47:07;;;;;;;2.42;0.70;;;28.70;99.90;;;;;;4212305;28;20562;-89
2021/06/20 08:49:09;;;;;;;3.67;0.70;;;28.90;99.90;;;;;;4212527;28;20190;-91
2021/06/20 08:51:09;;;;;;;2.75;0.77;;;28.70;99.90;;;;;;4212307;28;20194;-90
2021/06/20 08:53:15;;;;;;;2.97;0.68;;;29.60;99.90;;;;;;4212153;28;20613;-89
2021/06/20 08:55:16;;;;;;;0.63;0.50;;;28.90;99.90;;;;;;4229083;28;20284;-91
2021/06/20 08:57:18;;;;;;;2.95;0.70;;;28.60;99.90;;;;;;4211926;28;20170;-89
2021/06/20 08:59:20;;;;;;;2.13;0.57;;;28.80;99.90;;;;;;4229046;28;20802;-89
2021/06/20 09:01:21;;;;;;;4.18;0.85;;;28.70;99.90;;;;;;4211858;28;20166;-88
2021/06/20 09:03:22;;;;;;;2.38;0.90;;;28.60;99.90;;;;;;4228736;28;20765;-89
2021/06/20 09:05:23;;;;;;;3.70;0.90;;;28.60;99.90;;;;;;4211874;28;20169;-91
2021/06/20 09:07:33;;;;;;;1.73;0.77;;;27.90;99.90;;;;;;4228621;28;20169;-91
2021/06/20 09:09:36;;;;;;;1.85;0.75;;;27.60;99.90;;;;;;4212123;28;20208;-90
2021/06/20 09:11:40;;;;;;;2.72;0.90;;;27.20;99.90;;;;;;4211639;28;20177;-89
2021/06/20 09:13:41;;;;;;;3.72;0.88;;;27.20;99.90;;;;;;4211478;28;20166;-89
2021/06/20 09:15:42;;;;;;;1.75;0.70;;;27.90;99.90;;;;;;4211726;28;20203;-89
2021/06/20 09:17:50;;;;;;;2.05;1.00;;;28.70;99.90;;;;;;4211664;28;20617;-89
2021/06/20 09:19:56;;;;;;;2.63;0.85;;;30.20;99.90;;;;;;4228667;28;20164;-91
2021/06/20 09:22:01;;;;;;;3.05;1.00;;;29.80;99.90;;;;;;4211468;28;20641;-89
2021/06/20 09:24:02;;;;;;;4.00;0.90;;;28.90;99.90;;;;;;4211802;28;20656;-89
2021/06/20 09:26:03;;;;;;;3.95;1.08;;;28.70;99.90;;;;;;4228515;28;20230;-89
2021/06/20 09:28:05;;;;;;;4.07;0.70;;;28.50;99.90;;;;;;4228452;28;20178;-89
2021/06/20 09:30:07;;;;;;;4.05;0.80;;;28.20;99.90;;;;;;4228536;28;20208;-88
2021/06/20 09:32:10;;;;;;;1.40;0.63;;;28.30;99.90;;;;;;4211663;28;20707;-90
2021/06/20 09:34:10;;;;;;;6.97;1.15;;;28.10;99.90;;;;;;4211565;28;20224;-90
2021/06/20 09:36:12;;;;;;;3.20;1.00;;;28.00;99.90;;;;;;4211505;28;20178;-89
2021/06/20 09:38:20;;;;;;;7.28;0.90;;;28.10;99.90;;;;;;4211680;28;20199;-90
2021/06/20 09:40:29;;;;;;;3.13;0.73;;;27.90;99.90;;;;;;4228076;28;20176;-88
2021/06/20 09:42:39;;;;;;;3.30;0.80;;;27.70;99.90;;;;;;4228144;28;20568;-88
2021/06/20 09:44:45;;;;;;;4.03;0.80;;;26.80;99.90;;;;;;4227204;28;20230;-89
2021/06/20 09:46:55;;;;;;;2.65;0.70;;;26.70;99.90;;;;;;4211028;28;20729;-92
2021/06/20 09:48:55;;;;;;;3.65;0.73;;;26.80;99.90;;;;;;4211172;28;20260;-89
2021/06/20 09:50:58;;;;;;;2.80;0.60;;;26.80;99.90;;;;;;4208079;28;20241;-89
2021/06/20 09:53:00;;;;;;;1.50;0.60;;;27.00;99.90;;;;;;4200044;28;20268;-90
2021/06/20 09:55:12;;;;;;;6.63;0.80;;;27.20;99.90;;;;;;4193614;28;20172;-91
2021/06/20 09:57:15;;;;;;;4.70;1.10;;;27.30;99.90;;;;;;4188542;28;20272;-93
2021/06/20 09:59:16;;;;;;;3.35;1.05;;;27.30;99.90;;;;;;4200109;28;20694;-88
2021/06/20 10:01:18;;;;;;;2.83;0.77;;;27.10;99.90;;;;;;4199361;28;20174;-89
2021/06/20 10:03:24;;;;;;;4.88;0.75;;;26.90;99.90;;;;;;4216527;28;20191;-90
2021/06/20 10:05:24;;;;;;;4.07;0.80;;;26.90;99.90;;;;;;4216540;28;20235;-88
2021/06/20 10:07:27;;;;;;;3.50;0.85;;;27.10;99.90;;;;;;4200799;28;20170;-91
2021/06/20 11:47:54;;;;;;;1.65;0.70;;;26.00;99.90;;;;;;4246152;27;20875;-90
2021/06/20 11:49:56;;;;;;;2.95;0.63;;;26.10;99.90;;;;;;4220856;28;20535;-89
2021/06/20 11:51:58;;;;;;;5.63;0.60;;;26.40;99.90;;;;;;4210112;28;20185;-89
2021/06/20 11:54:25;;;;;;;3.75;0.52;;;26.60;99.90;;;;;;4195660;28;20187;-89
2021/06/20 11:56:28;;;;;;;2.53;0.50;;;26.50;99.90;;;;;;4212378;28;20163;-89
2021/06/20 11:58:29;;;;;;;1.55;0.60;;;26.40;99.90;;;;;;4195831;28;20167;-90
2021/06/20 12:00:31;;;;;;;5.40;0.52;;;26.50;99.90;;;;;;4195763;28;20162;-88
2021/06/20 12:02:31;;;;;;;2.10;0.60;;;26.70;99.90;;;;;;4178664;28;20191;-88
2021/06/20 12:04:34;;;;;;;5.07;0.60;;;26.60;99.90;;;;;;4195613;28;20186;-87
2021/06/20 12:06:35;;;;;;;1.02;0.70;;;26.60;99.90;;;;;;4195361;28;20215;-90
2021/06/20 12:08:36;;;;;;;2.78;0.68;;;27.00;99.90;;;;;;4212223;28;20642;-90
2021/06/20 12:10:40;;;;;;;1.80;0.57;;;26.50;99.90;;;;;;4212110;28;20192;-90
2021/06/20 12:12:42;;;;;;;1.50;0.50;;;26.40;99.90;;;;;;4212093;28;20705;-90
2021/06/20 12:14:42;;;;;;;1.85;0.50;;;26.50;99.90;;;;;;4196394;28;20654;-88
2021/06/20 12:16:47;;;;;;;1.35;0.65;;;26.90;99.90;;;;;;4211826;28;20163;-88
2021/06/20 12:18:48;;;;;;;4.95;1.35;;;27.30;99.90;;;;;;4212081;28;20184;-87
2021/06/20 12:20:53;;;;;;;2.03;0.60;;;27.70;99.90;;;;;;4212453;28;20166;-88
2021/06/20 12:22:54;;;;;;;2.47;0.70;;;27.60;99.90;;;;;;4211968;28;20198;-91